sensor_id;sensor_type;location;lat;lon;timestamp;pressure;altitude;pressure_sealevel;temperature;humidity
6128;BME280;7073;42.672;23.256;2022-07-25T00:01:00;94456.13;;;26.06;64.21
6128;BME280;7073;42.672;23.256;2022-07-25T00:03:28;94452.59;;;25.97;64.64
6128;BME280;7073;42.672;23.256;2022-07-25T00:05:55;94444.81;;;26.09;64.43
6128;BME280;7073;42.672;23.256;2022-07-25T00:08:23;94450.50;;;26.17;63.90
6128;BME280;7073;42.672;23.256;2022-07-25T00:10:50;94445.09;;;26.08;65.11
6128;BME280;7073;42.672;23.256;2022-07-25T00:13:17;94451.13;;;26.13;65.52
6128;BME280;7073;42.672;23.256;2022-07-25T00:15:43;94452.00;;;26.00;65.75
6128;BME280;7073;42.672;23.256;2022-07-25T00:18:10;94456.81;;;25.90;66.67
6128;BME280;7073;42.672;23.256;2022-07-25T00:20:37;94445.38;;;25.98;67.19
6128;BME280;7073;42.672;23.256;2022-07-25T00:23:04;94446.78;;;25.95;67.75
6128;BME280;7073;42.672;23.256;2022-07-25T00:25:32;94446.31;;;25.93;67.78
6128;BME280;7073;42.672;23.256;2022-07-25T00:27:59;94443.03;;;25.96;67.79
6128;BME280;7073;42.672;23.256;2022-07-25T00:30:25;94438.78;;;25.95;67.45
6128;BME280;7073;42.672;23.256;2022-07-25T00:32:52;94437.16;;;25.77;68.79
6128;BME280;7073;42.672;23.256;2022-07-25T00:35:19;94434.28;;;25.43;70.66
6128;BME280;7073;42.672;23.256;2022-07-25T00:37:46;94433.16;;;25.66;70.28
6128;BME280;7073;42.672;23.256;2022-07-25T00:40:13;94433.25;;;25.30;71.38
6128;BME280;7073;42.672;23.256;2022-07-25T00:42:41;94425.19;;;25.44;71.03
6128;BME280;7073;42.672;23.256;2022-07-25T00:45:08;94426.47;;;25.46;71.09
6128;BME280;7073;42.672;23.256;2022-07-25T00:47:35;94426.41;;;25.38;71.87
6128;BME280;7073;42.672;23.256;2022-07-25T00:50:02;94423.13;;;25.41;71.54
6128;BME280;7073;42.672;23.256;2022-07-25T00:52:30;94415.41;;;25.39;71.11
6128;BME280;7073;42.672;23.256;2022-07-25T00:54:56;94425.09;;;25.49;70.92
6128;BME280;7073;42.672;23.256;2022-07-25T00:57:23;94418.06;;;25.39;71.24
6128;BME280;7073;42.672;23.256;2022-07-25T00:59:51;94425.66;;;25.24;73.25
6128;BME280;7073;42.672;23.256;2022-07-25T01:02:18;94424.28;;;25.26;72.54
6128;BME280;7073;42.672;23.256;2022-07-25T01:04:45;94422.78;;;25.12;73.69
6128;BME280;7073;42.672;23.256;2022-07-25T01:07:12;94416.00;;;24.83;71.84
6128;BME280;7073;42.672;23.256;2022-07-25T01:09:40;94420.31;;;24.57;72.48
6128;BME280;7073;42.672;23.256;2022-07-25T01:12:07;94411.69;;;24.60;71.97
6128;BME280;7073;42.672;23.256;2022-07-25T01:14:34;94418.72;;;24.56;71.88
6128;BME280;7073;42.672;23.256;2022-07-25T01:17:02;94415.38;;;24.51;71.68
6128;BME280;7073;42.672;23.256;2022-07-25T01:19:29;94422.44;;;24.55;71.55
6128;BME280;7073;42.672;23.256;2022-07-25T01:21:58;94420.91;;;24.54;71.99
6128;BME280;7073;42.672;23.256;2022-07-25T01:24:25;94422.31;;;24.38;72.02
6128;BME280;7073;42.672;23.256;2022-07-25T01:26:51;94419.94;;;24.37;71.50
6128;BME280;7073;42.672;23.256;2022-07-25T01:29:18;94418.53;;;24.39;71.30
6128;BME280;7073;42.672;23.256;2022-07-25T01:31:45;94419.19;;;24.58;70.03
6128;BME280;7073;42.672;23.256;2022-07-25T01:34:12;94414.50;;;24.77;69.07
6128;BME280;7073;42.672;23.256;2022-07-25T01:36:39;94415.88;;;24.88;68.70
6128;BME280;7073;42.672;23.256;2022-07-25T01:39:07;94419.63;;;24.87;68.63
6128;BME280;7073;42.672;23.256;2022-07-25T01:41:34;94422.81;;;24.76;70.29
6128;BME280;7073;42.672;23.256;2022-07-25T01:44:01;94425.31;;;24.94;70.14
6128;BME280;7073;42.672;23.256;2022-07-25T01:46:27;94425.69;;;25.02;69.58
6128;BME280;7073;42.672;23.256;2022-07-25T01:48:54;94430.59;;;25.08;69.24
6128;BME280;7073;42.672;23.256;2022-07-25T01:51:21;94425.94;;;25.14;69.05
6128;BME280;7073;42.672;23.256;2022-07-25T01:53:48;94427.06;;;25.21;68.13
6128;BME280;7073;42.672;23.256;2022-07-25T01:56:16;94422.88;;;25.29;68.37
6128;BME280;7073;42.672;23.256;2022-07-25T01:58:43;94426.53;;;25.33;68.33
6128;BME280;7073;42.672;23.256;2022-07-25T02:01:10;94430.75;;;25.34;68.63
6128;BME280;7073;42.672;23.256;2022-07-25T02:03:36;94437.25;;;25.19;69.75
6128;BME280;7073;42.672;23.256;2022-07-25T02:06:05;94438.66;;;25.17;69.11
6128;BME280;7073;42.672;23.256;2022-07-25T02:08:33;94444.69;;;24.86;71.18
6128;BME280;7073;42.672;23.256;2022-07-25T02:11:00;94439.38;;;24.86;70.32
6128;BME280;7073;42.672;23.256;2022-07-25T02:13:28;94435.75;;;25.05;70.12
6128;BME280;7073;42.672;23.256;2022-07-25T02:15:55;94413.25;;;24.97;69.15
6128;BME280;7073;42.672;23.256;2022-07-25T02:18:22;94431.75;;;25.16;69.74
6128;BME280;7073;42.672;23.256;2022-07-25T02:20:48;94431.09;;;24.88;69.62
6128;BME280;7073;42.672;23.256;2022-07-25T02:23:15;94437.69;;;24.77;70.15
6128;BME280;7073;42.672;23.256;2022-07-25T02:25:43;94433.66;;;24.30;73.38
6128;BME280;7073;42.672;23.256;2022-07-25T02:28:09;94442.63;;;24.34;71.28
6128;BME280;7073;42.672;23.256;2022-07-25T02:30:38;94441.47;;;24.26;71.07
6128;BME280;7073;42.672;23.256;2022-07-25T02:33:05;94451.03;;;24.27;70.44
6128;BME280;7073;42.672;23.256;2022-07-25T02:35:31;94445.59;;;24.05;71.20
6128;BME280;7073;42.672;23.256;2022-07-25T02:37:58;94449.44;;;23.86;71.60
6128;BME280;7073;42.672;23.256;2022-07-25T02:40:25;94433.75;;;23.70;72.33
6128;BME280;7073;42.672;23.256;2022-07-25T02:42:52;94438.47;;;23.73;72.12
6128;BME280;7073;42.672;23.256;2022-07-25T02:45:19;94435.88;;;23.41;74.67
6128;BME280;7073;42.672;23.256;2022-07-25T02:47:47;94418.78;;;22.96;78.39
6128;BME280;7073;42.672;23.256;2022-07-25T02:50:14;94433.59;;;22.84;80.02
6128;BME280;7073;42.672;23.256;2022-07-25T02:52:41;94433.66;;;22.79;79.04
6128;BME280;7073;42.672;23.256;2022-07-25T02:55:09;94431.88;;;22.93;79.44
6128;BME280;7073;42.672;23.256;2022-07-25T02:57:36;94446.09;;;23.02;76.73
6128;BME280;7073;42.672;23.256;2022-07-25T03:00:05;94439.00;;;23.11;75.83
6128;BME280;7073;42.672;23.256;2022-07-25T03:02:32;94435.47;;;23.02;75.38
6128;BME280;7073;42.672;23.256;2022-07-25T03:05:00;94439.94;;;23.20;75.05
6128;BME280;7073;42.672;23.256;2022-07-25T03:07:28;94438.47;;;23.28;73.99
6128;BME280;7073;42.672;23.256;2022-07-25T03:09:55;94442.84;;;23.37;73.62
6128;BME280;7073;42.672;23.256;2022-07-25T03:12:22;94438.09;;;23.34;73.01
6128;BME280;7073;42.672;23.256;2022-07-25T03:14:48;94445.34;;;23.29;72.99
6128;BME280;7073;42.672;23.256;2022-07-25T03:17:15;94450.25;;;23.40;73.03
6128;BME280;7073;42.672;23.256;2022-07-25T03:19:42;94444.72;;;23.37;72.78
6128;BME280;7073;42.672;23.256;2022-07-25T03:22:10;94449.66;;;23.11;73.16
6128;BME280;7073;42.672;23.256;2022-07-25T03:24:37;94443.44;;;23.02;73.17
6128;BME280;7073;42.672;23.256;2022-07-25T03:27:04;94449.78;;;23.20;72.92
6128;BME280;7073;42.672;23.256;2022-07-25T03:29:31;94440.38;;;23.08;72.98
6128;BME280;7073;42.672;23.256;2022-07-25T03:31:58;94441.53;;;23.35;71.99
6128;BME280;7073;42.672;23.256;2022-07-25T03:34:25;94445.16;;;23.25;71.86
6128;BME280;7073;42.672;23.256;2022-07-25T03:36:52;94447.13;;;23.20;72.32
6128;BME280;7073;42.672;23.256;2022-07-25T03:39:20;94439.72;;;23.17;72.37
6128;BME280;7073;42.672;23.256;2022-07-25T03:41:48;94450.00;;;23.23;72.11
6128;BME280;7073;42.672;23.256;2022-07-25T03:44:17;94438.94;;;23.16;72.39
6128;BME280;7073;42.672;23.256;2022-07-25T03:46:43;94446.81;;;23.21;71.98
6128;BME280;7073;42.672;23.256;2022-07-25T03:49:10;94441.31;;;23.31;71.38
6128;BME280;7073;42.672;23.256;2022-07-25T03:51:37;94450.06;;;23.50;70.47
6128;BME280;7073;42.672;23.256;2022-07-25T03:54:04;94453.84;;;23.63;69.81
6128;BME280;7073;42.672;23.256;2022-07-25T03:56:38;94455.22;;;23.60;69.78
6128;BME280;7073;42.672;23.256;2022-07-25T03:59:05;94451.47;;;23.61;69.29
6128;BME280;7073;42.672;23.256;2022-07-25T04:01:33;94452.94;;;23.54;69.21
6128;BME280;7073;42.672;23.256;2022-07-25T04:04:00;94454.56;;;23.82;68.88
6128;BME280;7073;42.672;23.256;2022-07-25T04:06:27;94464.03;;;23.88;69.05
6128;BME280;7073;42.672;23.256;2022-07-25T04:08:55;94456.84;;;23.89;68.67
6128;BME280;7073;42.672;23.256;2022-07-25T04:11:23;94457.00;;;23.79;68.79
6128;BME280;7073;42.672;23.256;2022-07-25T04:13:51;94459.09;;;23.82;67.78
6128;BME280;7073;42.672;23.256;2022-07-25T04:16:18;94454.09;;;23.94;67.01
6128;BME280;7073;42.672;23.256;2022-07-25T04:18:46;94460.75;;;24.05;66.91
6128;BME280;7073;42.672;23.256;2022-07-25T04:21:12;94458.63;;;24.07;65.65
6128;BME280;7073;42.672;23.256;2022-07-25T04:23:39;94456.16;;;24.24;65.78
6128;BME280;7073;42.672;23.256;2022-07-25T04:26:06;94453.50;;;23.97;66.38
6128;BME280;7073;42.672;23.256;2022-07-25T04:28:33;94451.69;;;24.06;66.61
6128;BME280;7073;42.672;23.256;2022-07-25T04:31:01;94453.69;;;24.14;66.09
6128;BME280;7073;42.672;23.256;2022-07-25T04:33:28;94459.66;;;24.60;65.88
6128;BME280;7073;42.672;23.256;2022-07-25T04:35:55;94446.72;;;24.67;64.94
6128;BME280;7073;42.672;23.256;2022-07-25T04:38:21;94451.13;;;24.85;65.19
6128;BME280;7073;42.672;23.256;2022-07-25T04:40:48;94449.44;;;24.89;64.60
6128;BME280;7073;42.672;23.256;2022-07-25T04:43:15;94451.75;;;25.05;64.27
6128;BME280;7073;42.672;23.256;2022-07-25T04:45:42;94447.75;;;25.16;63.51
6128;BME280;7073;42.672;23.256;2022-07-25T04:48:10;94446.47;;;25.35;63.78
6128;BME280;7073;42.672;23.256;2022-07-25T04:50:37;94445.00;;;25.29;62.79
6128;BME280;7073;42.672;23.256;2022-07-25T04:53:04;94454.13;;;25.06;60.82
6128;BME280;7073;42.672;23.256;2022-07-25T04:55:31;94450.81;;;25.31;61.91
6128;BME280;7073;42.672;23.256;2022-07-25T04:57:58;94460.22;;;25.29;60.19
6128;BME280;7073;42.672;23.256;2022-07-25T05:00:25;94459.50;;;25.37;60.30
6128;BME280;7073;42.672;23.256;2022-07-25T05:02:52;94456.50;;;25.52;59.85
6128;BME280;7073;42.672;23.256;2022-07-25T05:05:21;94455.25;;;25.58;58.37
6128;BME280;7073;42.672;23.256;2022-07-25T05:07:48;94460.44;;;25.55;57.83
6128;BME280;7073;42.672;23.256;2022-07-25T05:10:16;94455.88;;;25.55;57.62
6128;BME280;7073;42.672;23.256;2022-07-25T05:12:43;94455.63;;;25.65;58.04
6128;BME280;7073;42.672;23.256;2022-07-25T05:15:10;94451.41;;;25.73;57.96
6128;BME280;7073;42.672;23.256;2022-07-25T05:17:37;94456.09;;;25.67;57.72
6128;BME280;7073;42.672;23.256;2022-07-25T05:20:05;94460.69;;;25.75;57.35
6128;BME280;7073;42.672;23.256;2022-07-25T05:22:34;94456.03;;;25.89;57.39
6128;BME280;7073;42.672;23.256;2022-07-25T05:25:00;94464.91;;;25.76;56.78
6128;BME280;7073;42.672;23.256;2022-07-25T05:27:28;94460.78;;;25.62;57.35
6128;BME280;7073;42.672;23.256;2022-07-25T05:29:54;94463.41;;;25.53;57.54
6128;BME280;7073;42.672;23.256;2022-07-25T05:32:21;94463.53;;;25.79;57.40
6128;BME280;7073;42.672;23.256;2022-07-25T05:34:48;94460.84;;;26.09;57.18
6128;BME280;7073;42.672;23.256;2022-07-25T05:37:15;94461.28;;;26.03;56.86
6128;BME280;7073;42.672;23.256;2022-07-25T05:39:43;94454.94;;;26.30;56.34
6128;BME280;7073;42.672;23.256;2022-07-25T05:42:10;94462.34;;;26.33;56.33
6128;BME280;7073;42.672;23.256;2022-07-25T05:44:37;94465.03;;;26.33;56.07
6128;BME280;7073;42.672;23.256;2022-07-25T05:47:07;94467.88;;;26.05;56.35
6128;BME280;7073;42.672;23.256;2022-07-25T05:49:34;94462.41;;;26.10;56.49
6128;BME280;7073;42.672;23.256;2022-07-25T05:52:01;94462.28;;;26.16;55.87
6128;BME280;7073;42.672;23.256;2022-07-25T05:54:28;94458.84;;;26.15;56.07
6128;BME280;7073;42.672;23.256;2022-07-25T05:56:56;94451.13;;;26.13;56.38
6128;BME280;7073;42.672;23.256;2022-07-25T05:59:23;94454.47;;;26.28;56.11
6128;BME280;7073;42.672;23.256;2022-07-25T06:01:50;94452.91;;;26.27;55.87
6128;BME280;7073;42.672;23.256;2022-07-25T06:04:17;94450.28;;;26.44;55.24
6128;BME280;7073;42.672;23.256;2022-07-25T06:06:43;94456.25;;;26.41;55.27
6128;BME280;7073;42.672;23.256;2022-07-25T06:09:15;94457.00;;;26.33;55.29
6128;BME280;7073;42.672;23.256;2022-07-25T06:11:42;94447.91;;;26.42;54.58
6128;BME280;7073;42.672;23.256;2022-07-25T06:14:10;94451.38;;;26.51;54.60
6128;BME280;7073;42.672;23.256;2022-07-25T06:16:37;94454.41;;;26.67;54.27
6128;BME280;7073;42.672;23.256;2022-07-25T06:19:04;94455.22;;;26.85;54.21
6128;BME280;7073;42.672;23.256;2022-07-25T06:21:30;94457.25;;;27.13;53.94
6128;BME280;7073;42.672;23.256;2022-07-25T06:23:58;94448.78;;;27.11;52.84
6128;BME280;7073;42.672;23.256;2022-07-25T06:26:24;94457.25;;;27.30;52.69
6128;BME280;7073;42.672;23.256;2022-07-25T06:28:51;94456.16;;;27.06;53.00
6128;BME280;7073;42.672;23.256;2022-07-25T06:31:20;94446.13;;;26.94;53.13
6128;BME280;7073;42.672;23.256;2022-07-25T06:33:46;94454.78;;;27.00;53.19
6128;BME280;7073;42.672;23.256;2022-07-25T06:36:13;94441.84;;;26.76;53.99
6128;BME280;7073;42.672;23.256;2022-07-25T06:38:40;94441.38;;;26.83;53.86
6128;BME280;7073;42.672;23.256;2022-07-25T06:41:07;94454.59;;;27.13;53.16
6128;BME280;7073;42.672;23.256;2022-07-25T06:43:34;94451.59;;;27.41;52.56
6128;BME280;7073;42.672;23.256;2022-07-25T06:46:00;94449.84;;;27.36;52.87
6128;BME280;7073;42.672;23.256;2022-07-25T06:48:28;94445.47;;;27.40;52.75
6128;BME280;7073;42.672;23.256;2022-07-25T06:50:55;94447.97;;;27.54;52.42
6128;BME280;7073;42.672;23.256;2022-07-25T06:53:22;94430.50;;;27.30;52.12
6128;BME280;7073;42.672;23.256;2022-07-25T06:55:49;94440.09;;;27.49;51.81
6128;BME280;7073;42.672;23.256;2022-07-25T06:58:16;94434.53;;;27.71;51.59
6128;BME280;7073;42.672;23.256;2022-07-25T07:00:42;94437.41;;;28.04;50.73
6128;BME280;7073;42.672;23.256;2022-07-25T07:03:09;94440.44;;;28.31;50.33
6128;BME280;7073;42.672;23.256;2022-07-25T07:05:38;94440.88;;;28.04;50.28
6128;BME280;7073;42.672;23.256;2022-07-25T07:08:05;94440.25;;;28.07;49.16
6128;BME280;7073;42.672;23.256;2022-07-25T07:10:32;94435.72;;;27.82;50.20
6128;BME280;7073;42.672;23.256;2022-07-25T07:13:05;94435.19;;;28.06;49.49
6128;BME280;7073;42.672;23.256;2022-07-25T07:15:32;94442.41;;;28.14;49.84
6128;BME280;7073;42.672;23.256;2022-07-25T07:17:59;94445.13;;;28.34;49.26
6128;BME280;7073;42.672;23.256;2022-07-25T07:20:26;94440.97;;;28.16;48.95
6128;BME280;7073;42.672;23.256;2022-07-25T07:22:54;94442.38;;;28.22;48.77
6128;BME280;7073;42.672;23.256;2022-07-25T07:25:21;94433.53;;;28.22;49.88
6128;BME280;7073;42.672;23.256;2022-07-25T07:27:49;94435.75;;;28.49;48.42
6128;BME280;7073;42.672;23.256;2022-07-25T07:30:17;94439.19;;;28.29;49.09
6128;BME280;7073;42.672;23.256;2022-07-25T07:32:44;94426.13;;;28.48;48.52
6128;BME280;7073;42.672;23.256;2022-07-25T07:35:12;94434.03;;;28.74;48.16
6128;BME280;7073;42.672;23.256;2022-07-25T07:37:41;94433.38;;;28.47;47.39
6128;BME280;7073;42.672;23.256;2022-07-25T07:40:10;94431.13;;;28.58;46.93
6128;BME280;7073;42.672;23.256;2022-07-25T07:42:39;94434.66;;;29.00;46.99
6128;BME280;7073;42.672;23.256;2022-07-25T07:45:11;94440.31;;;29.19;46.33
6128;BME280;7073;42.672;23.256;2022-07-25T07:47:38;94437.72;;;29.10;46.73
6128;BME280;7073;42.672;23.256;2022-07-25T07:50:06;94440.25;;;29.07;45.98
6128;BME280;7073;42.672;23.256;2022-07-25T07:52:33;94431.44;;;28.65;45.77
6128;BME280;7073;42.672;23.256;2022-07-25T07:55:00;94431.03;;;28.75;46.34
6128;BME280;7073;42.672;23.256;2022-07-25T07:57:46;94434.56;;;28.88;46.24
6128;BME280;7073;42.672;23.256;2022-07-25T08:00:14;94441.41;;;28.97;45.84
6128;BME280;7073;42.672;23.256;2022-07-25T08:02:42;94430.41;;;29.11;45.75
6128;BME280;7073;42.672;23.256;2022-07-25T08:05:09;94434.31;;;28.81;45.69
6128;BME280;7073;42.672;23.256;2022-07-25T08:07:35;94429.06;;;29.05;46.40
6128;BME280;7073;42.672;23.256;2022-07-25T08:10:03;94435.53;;;29.04;45.73
6128;BME280;7073;42.672;23.256;2022-07-25T08:12:30;94436.34;;;29.04;45.59
6128;BME280;7073;42.672;23.256;2022-07-25T08:14:58;94432.06;;;29.24;44.44
6128;BME280;7073;42.672;23.256;2022-07-25T08:17:25;94434.59;;;29.41;44.29
6128;BME280;7073;42.672;23.256;2022-07-25T08:19:52;94424.50;;;29.26;44.89
6128;BME280;7073;42.672;23.256;2022-07-25T08:22:19;94437.16;;;29.17;44.87
6128;BME280;7073;42.672;23.256;2022-07-25T08:24:45;94428.31;;;29.17;44.62
6128;BME280;7073;42.672;23.256;2022-07-25T08:27:12;94430.59;;;29.47;44.32
6128;BME280;7073;42.672;23.256;2022-07-25T08:29:39;94406.69;;;29.66;43.92
6128;BME280;7073;42.672;23.256;2022-07-25T08:32:07;94434.75;;;29.57;43.48
6128;BME280;7073;42.672;23.256;2022-07-25T08:34:34;94430.75;;;29.75;42.37
6128;BME280;7073;42.672;23.256;2022-07-25T08:37:01;94434.94;;;29.85;41.89
6128;BME280;7073;42.672;23.256;2022-07-25T08:39:27;94413.84;;;29.62;42.34
6128;BME280;7073;42.672;23.256;2022-07-25T08:41:55;94427.94;;;29.71;41.50
6128;BME280;7073;42.672;23.256;2022-07-25T08:44:25;94435.56;;;29.69;40.65
6128;BME280;7073;42.672;23.256;2022-07-25T08:46:53;94424.41;;;29.80;41.36
6128;BME280;7073;42.672;23.256;2022-07-25T08:49:22;94427.03;;;30.12;40.88
6128;BME280;7073;42.672;23.256;2022-07-25T08:51:49;94421.91;;;29.75;42.66
6128;BME280;7073;42.672;23.256;2022-07-25T08:54:17;94427.81;;;30.13;40.14
6128;BME280;7073;42.672;23.256;2022-07-25T08:56:44;94430.09;;;30.47;39.50
6128;BME280;7073;42.672;23.256;2022-07-25T08:59:11;94425.28;;;30.93;39.37
6128;BME280;7073;42.672;23.256;2022-07-25T09:01:38;94419.63;;;31.10;38.36
6128;BME280;7073;42.672;23.256;2022-07-25T09:04:07;94421.25;;;30.86;38.84
6128;BME280;7073;42.672;23.256;2022-07-25T09:06:35;94410.34;;;31.07;40.25
6128;BME280;7073;42.672;23.256;2022-07-25T09:09:03;94414.28;;;31.25;38.98
6128;BME280;7073;42.672;23.256;2022-07-25T09:11:31;94422.28;;;30.94;39.01
6128;BME280;7073;42.672;23.256;2022-07-25T09:14:01;94416.44;;;30.92;39.06
6128;BME280;7073;42.672;23.256;2022-07-25T09:16:29;94407.72;;;30.71;40.09
6128;BME280;7073;42.672;23.256;2022-07-25T09:19:05;94405.75;;;30.96;39.71
6128;BME280;7073;42.672;23.256;2022-07-25T09:21:32;94403.19;;;30.87;39.68
6128;BME280;7073;42.672;23.256;2022-07-25T09:24:09;94409.19;;;30.68;39.68
6128;BME280;7073;42.672;23.256;2022-07-25T09:26:44;94402.09;;;30.76;39.33
6128;BME280;7073;42.672;23.256;2022-07-25T09:29:22;94395.03;;;30.71;39.62
6128;BME280;7073;42.672;23.256;2022-07-25T09:34:29;94404.63;;;31.24;39.03
6128;BME280;7073;42.672;23.256;2022-07-25T09:36:58;94381.38;;;30.64;39.44
6128;BME280;7073;42.672;23.256;2022-07-25T09:39:37;94364.97;;;30.81;39.05
6128;BME280;7073;42.672;23.256;2022-07-25T09:42:16;94364.09;;;31.33;39.45
6128;BME280;7073;42.672;23.256;2022-07-25T09:44:44;94400.50;;;30.99;39.64
6128;BME280;7073;42.672;23.256;2022-07-25T09:47:12;94385.59;;;30.89;40.13
6128;BME280;7073;42.672;23.256;2022-07-25T09:49:40;94393.66;;;30.89;39.65
6128;BME280;7073;42.672;23.256;2022-07-25T09:52:07;94394.66;;;31.25;38.78
6128;BME280;7073;42.672;23.256;2022-07-25T09:54:36;94393.09;;;31.24;37.57
6128;BME280;7073;42.672;23.256;2022-07-25T09:57:03;94384.41;;;31.58;37.57
6128;BME280;7073;42.672;23.256;2022-07-25T09:59:31;94393.47;;;31.97;37.58
6128;BME280;7073;42.672;23.256;2022-07-25T10:02:04;94376.50;;;30.82;38.61
6128;BME280;7073;42.672;23.256;2022-07-25T10:04:42;94381.47;;;30.92;39.49
6128;BME280;7073;42.672;23.256;2022-07-25T10:07:11;94384.31;;;30.59;39.54
6128;BME280;7073;42.672;23.256;2022-07-25T10:09:45;94382.81;;;30.74;38.49
6128;BME280;7073;42.672;23.256;2022-07-25T10:12:17;94385.94;;;30.36;39.04
6128;BME280;7073;42.672;23.256;2022-07-25T10:15:04;94378.69;;;30.64;37.75
6128;BME280;7073;42.672;23.256;2022-07-25T10:17:31;94379.38;;;31.29;36.25
6128;BME280;7073;42.672;23.256;2022-07-25T10:19:57;94382.97;;;32.08;33.86
6128;BME280;7073;42.672;23.256;2022-07-25T10:22:35;94377.47;;;32.70;35.12
6128;BME280;7073;42.672;23.256;2022-07-25T10:25:10;94372.44;;;33.26;34.76
6128;BME280;7073;42.672;23.256;2022-07-25T10:27:41;94366.63;;;33.24;33.89
6128;BME280;7073;42.672;23.256;2022-07-25T10:30:18;94372.03;;;33.05;35.22
6128;BME280;7073;42.672;23.256;2022-07-25T10:32:48;94364.88;;;32.78;36.41
6128;BME280;7073;42.672;23.256;2022-07-25T10:35:16;94366.25;;;32.87;35.17
6128;BME280;7073;42.672;23.256;2022-07-25T10:37:44;94373.94;;;32.35;35.48
6128;BME280;7073;42.672;23.256;2022-07-25T10:40:24;94373.28;;;31.75;35.16
6128;BME280;7073;42.672;23.256;2022-07-25T10:45:38;94361.25;;;31.41;36.40
6128;BME280;7073;42.672;23.256;2022-07-25T10:48:07;94361.13;;;31.81;36.08
6128;BME280;7073;42.672;23.256;2022-07-25T10:50:34;94362.34;;;32.50;35.47
6128;BME280;7073;42.672;23.256;2022-07-25T10:53:00;94356.72;;;32.39;33.92
6128;BME280;7073;42.672;23.256;2022-07-25T10:55:34;94357.59;;;32.97;33.76
6128;BME280;7073;42.672;23.256;2022-07-25T10:58:03;94351.97;;;33.06;34.13
6128;BME280;7073;42.672;23.256;2022-07-25T11:00:31;94353.44;;;32.65;34.58
6128;BME280;7073;42.672;23.256;2022-07-25T11:02:58;94350.19;;;32.94;34.04
6128;BME280;7073;42.672;23.256;2022-07-25T11:05:25;94347.69;;;32.66;33.80
6128;BME280;7073;42.672;23.256;2022-07-25T11:07:54;94348.47;;;32.86;34.40
6128;BME280;7073;42.672;23.256;2022-07-25T11:10:24;94342.22;;;33.01;33.40
6128;BME280;7073;42.672;23.256;2022-07-25T11:12:53;94348.88;;;33.91;33.09
6128;BME280;7073;42.672;23.256;2022-07-25T11:15:33;94343.03;;;34.12;30.55
6128;BME280;7073;42.672;23.256;2022-07-25T11:18:01;94336.34;;;34.28;31.20
6128;BME280;7073;42.672;23.256;2022-07-25T11:20:28;94337.13;;;34.29;29.55
6128;BME280;7073;42.672;23.256;2022-07-25T11:22:55;94330.81;;;34.74;30.86
6128;BME280;7073;42.672;23.256;2022-07-25T11:25:22;94324.53;;;34.99;28.71
6128;BME280;7073;42.672;23.256;2022-07-25T11:27:49;94327.34;;;34.77;30.61
6128;BME280;7073;42.672;23.256;2022-07-25T11:30:22;94325.66;;;33.90;31.04
6128;BME280;7073;42.672;23.256;2022-07-25T11:32:51;94319.78;;;34.07;31.46
6128;BME280;7073;42.672;23.256;2022-07-25T11:35:20;94327.53;;;34.09;29.63
6128;BME280;7073;42.672;23.256;2022-07-25T11:37:49;94323.72;;;33.64;29.96
6128;BME280;7073;42.672;23.256;2022-07-25T11:40:17;94310.84;;;34.03;29.14
6128;BME280;7073;42.672;23.256;2022-07-25T11:42:46;94316.13;;;34.49;30.05
6128;BME280;7073;42.672;23.256;2022-07-25T11:45:18;94314.44;;;34.37;30.55
6128;BME280;7073;42.672;23.256;2022-07-25T11:47:48;94307.09;;;34.64;30.29
6128;BME280;7073;42.672;23.256;2022-07-25T11:50:15;94311.63;;;33.36;31.00
6128;BME280;7073;42.672;23.256;2022-07-25T11:52:42;94306.28;;;33.39;32.62
6128;BME280;7073;42.672;23.256;2022-07-25T11:55:12;94306.50;;;33.31;32.58
6128;BME280;7073;42.672;23.256;2022-07-25T11:57:41;94305.34;;;32.90;33.90
6128;BME280;7073;42.672;23.256;2022-07-25T12:00:15;94307.75;;;32.56;34.63
6128;BME280;7073;42.672;23.256;2022-07-25T12:02:43;94307.94;;;32.29;35.20
6128;BME280;7073;42.672;23.256;2022-07-25T12:05:14;94305.50;;;32.24;35.78
6128;BME280;7073;42.672;23.256;2022-07-25T12:07:43;94310.44;;;32.02;36.53
6128;BME280;7073;42.672;23.256;2022-07-25T12:10:12;94300.75;;;32.01;36.43
6128;BME280;7073;42.672;23.256;2022-07-25T12:12:44;94292.91;;;32.85;36.56
6128;BME280;7073;42.672;23.256;2022-07-25T12:15:14;94293.09;;;33.57;34.45
6128;BME280;7073;42.672;23.256;2022-07-25T12:17:41;94276.84;;;33.79;34.21
6128;BME280;7073;42.672;23.256;2022-07-25T12:20:18;94285.38;;;33.59;33.90
6128;BME280;7073;42.672;23.256;2022-07-25T12:22:45;94279.19;;;32.94;33.23
6128;BME280;7073;42.672;23.256;2022-07-25T12:25:13;94276.78;;;32.50;33.48
6128;BME280;7073;42.672;23.256;2022-07-25T12:27:40;94275.31;;;33.14;33.25
6128;BME280;7073;42.672;23.256;2022-07-25T12:30:08;94281.03;;;33.09;32.68
6128;BME280;7073;42.672;23.256;2022-07-25T12:32:36;94273.41;;;32.38;33.44
6128;BME280;7073;42.672;23.256;2022-07-25T12:35:05;94271.88;;;32.37;35.03
6128;BME280;7073;42.672;23.256;2022-07-25T12:37:34;94267.75;;;32.24;34.48
6128;BME280;7073;42.672;23.256;2022-07-25T12:40:01;94265.25;;;32.15;35.35
6128;BME280;7073;42.672;23.256;2022-07-25T12:42:28;94269.81;;;31.80;35.38
6128;BME280;7073;42.672;23.256;2022-07-25T12:44:55;94266.13;;;31.88;35.58
6128;BME280;7073;42.672;23.256;2022-07-25T12:47:23;94266.28;;;32.64;35.02
6128;BME280;7073;42.672;23.256;2022-07-25T12:49:50;94261.59;;;33.03;34.40
6128;BME280;7073;42.672;23.256;2022-07-25T12:52:17;94258.28;;;33.55;33.13
6128;BME280;7073;42.672;23.256;2022-07-25T12:54:46;94261.94;;;34.15;32.99
6128;BME280;7073;42.672;23.256;2022-07-25T12:57:13;94267.63;;;34.36;32.96
6128;BME280;7073;42.672;23.256;2022-07-25T12:59:41;94254.94;;;34.14;32.76
6128;BME280;7073;42.672;23.256;2022-07-25T13:02:08;94249.94;;;34.46;32.08
6128;BME280;7073;42.672;23.256;2022-07-25T13:04:35;94258.78;;;34.39;31.68
6128;BME280;7073;42.672;23.256;2022-07-25T13:07:02;94248.00;;;34.13;32.84
6128;BME280;7073;42.672;23.256;2022-07-25T13:09:29;94245.25;;;34.39;32.68
6128;BME280;7073;42.672;23.256;2022-07-25T13:11:58;94249.66;;;34.84;31.83
6128;BME280;7073;42.672;23.256;2022-07-25T13:14:25;94254.78;;;34.93;31.99
6128;BME280;7073;42.672;23.256;2022-07-25T13:16:52;94247.97;;;35.06;31.24
6128;BME280;7073;42.672;23.256;2022-07-25T13:19:18;94247.25;;;35.53;31.33